Time;durP1;ratioP1;P1;durP2;ratioP2;P2;SDS_P1;SDS_P2;PMS_P1;PMS_P2;Temp;Humidity;BMP_temperature;BMP_pressure;BME280_temperature;BME280_humidity;BME280_pressure;Samples;Min_cycle;Max_cycle;Signal;HPM_P1;HPM_P2
2022/01/22 00:00:50;;;;;;;1.20;1.20;;;5.30;99.90;;;;;;5113912;28;20043;-87
2022/01/22 00:03:15;;;;;;;1.23;1.15;;;5.30;99.90;;;;;;5077802;28;20027;-87
2022/01/22 00:05:45;;;;;;;1.80;1.30;;;5.40;99.90;;;;;;5084257;28;20501;-86
2022/01/22 00:08:11;;;;;;;1.77;1.67;;;5.40;99.90;;;;;;5097943;28;20031;-86
2022/01/22 00:10:40;;;;;;;2.40;1.30;;;5.40;99.90;;;;;;5114139;28;20384;-87
2022/01/22 00:16:17;;;;;;;1.73;1.63;;;5.40;99.90;;;;;;5099735;28;20160;-86
2022/01/22 00:18:43;;;;;;;1.70;1.38;;;5.40;99.90;;;;;;5095098;28;20091;-88
2022/01/22 00:21:09;;;;;;;2.95;1.63;;;5.40;99.90;;;;;;5109071;28;20031;-86
2022/01/22 00:23:37;;;;;;;1.73;1.63;;;5.50;99.90;;;;;;5095567;28;20046;-88
2022/01/22 00:26:03;;;;;;;2.80;1.45;;;5.50;99.90;;;;;;5105222;28;20471;-87
2022/01/22 00:28:36;;;;;;;1.58;1.48;;;5.50;99.90;;;;;;5115929;28;20031;-87
2022/01/22 00:31:02;;;;;;;1.58;1.48;;;5.50;99.90;;;;;;5097724;28;20019;-89
2022/01/22 00:33:28;;;;;;;1.65;1.55;;;5.50;99.90;;;;;;5074898;28;20043;-86
2022/01/22 00:35:54;;;;;;;3.50;1.95;;;5.50;99.90;;;;;;5111169;28;20016;-88
2022/01/22 00:38:38;;;;;;;1.77;1.60;;;5.50;99.90;;;;;;5093051;28;20024;-88
2022/01/22 00:41:03;;;;;;;1.50;1.40;;;5.60;99.90;;;;;;5076926;28;20456;-90
2022/01/22 00:43:29;;;;;;;2.22;2.00;;;5.60;99.90;;;;;;5076783;28;20103;-89
2022/01/22 00:46:04;;;;;;;2.83;1.95;;;5.60;99.90;;;;;;5077134;28;20031;-87
2022/01/22 00:48:29;;;;;;;2.67;2.08;;;5.60;99.90;;;;;;5095135;28;20027;-88
2022/01/22 00:51:03;;;;;;;5.00;2.03;;;5.60;99.90;;;;;;5077050;28;20039;-87
2022/01/22 00:53:29;;;;;;;2.25;2.15;;;5.60;99.90;;;;;;5074679;28;20506;-90
2022/01/22 00:55:54;;;;;;;2.88;2.05;;;5.60;99.90;;;;;;5074695;28;20021;-87
2022/01/22 00:58:26;;;;;;;1.95;1.85;;;5.60;99.90;;;;;;5078460;28;20469;-87
2022/01/22 01:00:51;;;;;;;1.92;1.83;;;5.60;99.90;;;;;;5110928;28;20091;-87
2022/01/22 01:03:17;;;;;;;2.20;2.00;;;5.60;99.90;;;;;;5094843;28;20103;-86
2022/01/22 01:05:45;;;;;;;5.63;2.85;;;5.60;99.90;;;;;;5094972;28;20068;-88
2022/01/22 01:08:10;;;;;;;3.08;2.78;;;5.60;99.90;;;;;;5102823;28;20020;-87
2022/01/22 01:10:36;;;;;;;2.88;2.15;;;5.60;99.90;;;;;;5114893;28;20533;-87
2022/01/22 01:13:04;;;;;;;2.65;2.25;;;5.60;99.90;;;;;;5096770;28;20024;-90
2022/01/22 01:15:41;;;;;;;5.53;2.30;;;5.70;99.90;;;;;;5115218;28;20474;-88
2022/01/22 01:32:18;;;;;;;4.13;2.63;;;5.70;99.90;;;;;;5109978;28;20038;-87
2022/01/22 01:34:45;;;;;;;2.90;2.30;;;5.70;99.90;;;;;;5095771;28;20027;-87
2022/01/22 01:37:16;;;;;;;3.15;2.38;;;5.70;99.90;;;;;;5100845;28;20012;-90
2022/01/22 01:40:05;;;;;;;2.53;2.33;;;5.70;99.90;;;;;;5094081;28;20478;-89
2022/01/22 01:43:09;;;;;;;2.65;2.45;;;5.70;99.90;;;;;;5061054;28;20038;-89
2022/01/22 01:45:23;;;;;;;3.05;2.75;;;5.70;99.90;;;;;;5093825;28;20032;-91
2022/01/22 01:48:08;;;;;;;3.72;2.85;;;5.70;99.90;;;;;;5114505;28;20023;-91
2022/01/22 01:50:37;;;;;;;2.83;2.55;;;5.70;99.90;;;;;;5110755;28;20020;-87
2022/01/22 01:53:20;;;;;;;4.80;2.80;;;5.70;99.90;;;;;;5100033;28;20080;-86
2022/01/22 01:58:13;;;;;;;4.13;3.05;;;5.70;99.90;;;;;;5111051;28;20020;-86
2022/01/22 02:00:47;;;;;;;4.22;2.45;;;5.70;99.90;;;;;;5093803;28;20102;-87
2022/01/22 02:03:13;;;;;;;2.78;2.50;;;5.60;99.90;;;;;;5075496;28;20379;-87
2022/01/22 02:05:39;;;;;;;4.10;3.08;;;5.70;99.90;;;;;;5093614;28;20077;-87
2022/01/22 02:08:16;;;;;;;3.50;3.20;;;5.70;99.90;;;;;;5111439;28;20421;-89
2022/01/22 02:10:47;;;;;;;3.15;2.90;;;5.70;99.90;;;;;;5095192;28;20471;-87
2022/01/22 02:24:59;;;;;;;4.18;3.55;;;5.60;99.90;;;;;;5114046;28;20054;-87
2022/01/22 02:27:25;;;;;;;4.65;3.45;;;5.70;99.90;;;;;;5113754;28;20047;-87
2022/01/22 02:29:50;;;;;;;4.35;3.20;;;5.70;99.90;;;;;;5095255;28;20034;-87
2022/01/22 02:35:11;;;;;;;3.40;3.10;;;5.70;99.90;;;;;;5113840;28;20027;-88
2022/01/22 02:37:46;;;;;;;2.97;2.60;;;5.70;99.90;;;;;;5113544;28;20055;-87
2022/01/22 02:40:17;;;;;;;5.45;3.38;;;5.70;99.90;;;;;;5113152;28;20391;-88
2022/01/22 02:42:59;;;;;;;6.20;3.40;;;5.70;99.90;;;;;;5081691;28;20020;-87
2022/01/22 02:45:25;;;;;;;3.92;3.40;;;5.70;99.90;;;;;;5099516;28;20040;-90
2022/01/22 02:47:51;;;;;;;7.75;3.85;;;5.70;99.90;;;;;;5095274;28;20031;-88
2022/01/22 02:50:25;;;;;;;4.38;3.33;;;5.70;99.90;;;;;;5113375;28;20015;-88
2022/01/22 02:52:50;;;;;;;5.10;3.80;;;5.70;99.90;;;;;;5101588;28;20020;-86
2022/01/22 02:55:16;;;;;;;5.75;3.53;;;5.60;99.90;;;;;;5086683;28;20028;-87
2022/01/22 02:58:06;;;;;;;7.18;3.47;;;5.60;99.90;;;;;;5104082;28;20484;-87
2022/01/22 03:00:32;;;;;;;5.28;3.55;;;5.60;99.90;;;;;;5092804;28;20016;-87
2022/01/22 03:02:58;;;;;;;6.03;3.30;;;5.60;99.90;;;;;;5092877;28;20027;-88
2022/01/22 03:05:24;;;;;;;4.15;3.20;;;5.60;99.90;;;;;;5092857;28;20020;-87
2022/01/22 03:07:53;;;;;;;3.78;3.17;;;5.60;99.90;;;;;;5092727;28;20098;-89
2022/01/22 03:10:25;;;;;;;8.15;3.60;;;5.60;99.90;;;;;;5092337;28;20027;-87
2022/01/22 03:29:30;;;;;;;6.03;3.60;;;5.60;99.90;;;;;;5092680;28;20063;-87
2022/01/22 03:31:56;;;;;;;6.18;3.53;;;5.60;99.90;;;;;;5092500;28;20020;-87
2022/01/22 03:34:21;;;;;;;4.53;3.47;;;5.60;99.90;;;;;;5103238;28;20028;-86
2022/01/22 03:36:53;;;;;;;9.73;4.05;;;5.50;99.90;;;;;;5092783;28;20020;-87
2022/01/22 03:39:19;;;;;;;4.43;3.20;;;5.50;99.90;;;;;;5102150;28;20422;-87
2022/01/22 03:41:44;;;;;;;5.55;3.55;;;5.50;99.90;;;;;;5112589;28;20073;-87
2022/01/22 03:44:11;;;;;;;5.20;3.83;;;5.60;99.90;;;;;;5112092;28;20067;-87
2022/01/22 03:46:38;;;;;;;4.28;3.40;;;5.60;99.90;;;;;;5112839;28;20077;-86
2022/01/22 03:49:04;;;;;;;6.80;3.75;;;5.50;99.90;;;;;;5112389;28;20012;-86
2022/01/22 03:51:31;;;;;;;8.48;4.32;;;5.50;99.90;;;;;;5112760;28;20031;-87
2022/01/22 03:53:58;;;;;;;7.95;4.05;;;5.50;99.90;;;;;;5112859;28;20107;-87
2022/01/22 03:56:25;;;;;;;9.20;4.80;;;5.50;99.90;;;;;;5098495;28;20472;-86
2022/01/22 03:58:53;;;;;;;6.68;4.35;;;5.50;99.90;;;;;;5096094;28;20020;-87
2022/01/22 04:03:59;;;;;;;7.43;4.97;;;5.50;99.90;;;;;;5113583;28;20464;-87
2022/01/22 04:09:17;;;;;;;5.88;4.35;;;5.50;99.90;;;;;;5108006;28;20027;-88
2022/01/22 04:11:45;;;;;;;7.15;5.03;;;5.50;99.90;;;;;;5115827;28;20026;-87
2022/01/22 04:14:36;;;;;;;8.43;4.78;;;5.50;99.90;;;;;;5112619;28;20441;-87
2022/01/22 04:17:20;;;;;;;9.13;5.45;;;5.50;99.90;;;;;;5100038;28;20483;-88
2022/01/22 04:25:24;;;;;;;8.77;5.25;;;5.50;99.90;;;;;;5075163;28;20090;-87
2022/01/22 04:27:53;;;;;;;8.52;5.45;;;5.50;99.90;;;;;;5105606;28;20020;-88
2022/01/22 04:30:19;;;;;;;10.63;6.68;;;5.50;99.90;;;;;;5116037;28;20020;-87
2022/01/22 04:32:49;;;;;;;11.73;6.60;;;5.50;99.90;;;;;;5115755;28;20490;-87
2022/01/22 04:35:17;;;;;;;13.48;6.50;;;5.50;99.90;;;;;;5116079;28;20031;-87
2022/01/22 04:37:43;;;;;;;9.38;6.38;;;5.50;99.90;;;;;;5108410;28;20021;-86
2022/01/22 04:40:37;;;;;;;14.60;6.85;;;5.50;99.90;;;;;;5076993;28;20111;-87
2022/01/22 04:43:04;;;;;;;10.82;6.50;;;5.50;99.90;;;;;;5103866;28;20406;-86
2022/01/22 04:45:49;;;;;;;9.98;6.15;;;5.50;99.90;;;;;;5077521;28;20128;-87
2022/01/22 04:48:41;;;;;;;8.73;6.10;;;5.50;99.90;;;;;;5095764;28;20043;-87
2022/01/22 04:56:43;;;;;;;9.40;6.00;;;5.40;99.90;;;;;;5095033;28;20031;-87
2022/01/22 04:59:08;;;;;;;9.63;6.38;;;5.50;99.90;;;;;;5077153;28;20028;-88
2022/01/22 05:01:34;;;;;;;9.73;6.32;;;5.50;99.90;;;;;;5076938;28;20028;-87
2022/01/22 05:03:59;;;;;;;9.80;6.60;;;5.50;99.90;;;;;;5094683;28;20115;-86
2022/01/22 05:06:26;;;;;;;12.75;7.20;;;5.50;99.90;;;;;;5080916;28;20051;-86
2022/01/22 05:08:52;;;;;;;10.52;7.90;;;5.50;99.90;;;;;;5115235;28;20016;-86
2022/01/22 05:11:32;;;;;;;10.65;7.15;;;5.50;99.90;;;;;;5089611;28;20476;-87
2022/01/22 05:13:58;;;;;;;12.27;7.35;;;5.50;99.90;;;;;;5101203;28;20032;-87
2022/01/22 05:16:24;;;;;;;12.95;8.13;;;5.50;99.90;;;;;;5097436;28;20107;-86
2022/01/22 05:19:06;;;;;;;14.75;8.68;;;5.50;99.90;;;;;;5114850;28;20019;-86
2022/01/22 05:21:34;;;;;;;12.13;8.20;;;5.50;99.90;;;;;;5114925;28;20022;-86
2022/01/22 05:24:04;;;;;;;12.98;8.13;;;5.50;99.90;;;;;;5096627;28;20059;-85
2022/01/22 05:37:45;;;;;;;12.35;7.95;;;5.50;99.90;;;;;;5084762;28;20043;-87
2022/01/22 05:40:19;;;;;;;16.30;9.43;;;5.50;99.90;;;;;;5096054;28;20023;-87
2022/01/22 05:42:44;;;;;;;13.40;9.27;;;5.50;99.90;;;;;;5095939;28;20123;-86
2022/01/22 05:45:10;;;;;;;17.55;9.75;;;5.50;99.90;;;;;;5095394;28;20130;-86
2022/01/22 05:47:36;;;;;;;15.23;10.10;;;5.50;99.90;;;;;;5114161;28;20036;-86
2022/01/22 05:50:09;;;;;;;17.42;11.77;;;5.50;99.90;;;;;;5114083;28;20024;-86
2022/01/22 05:52:43;;;;;;;21.98;11.60;;;5.60;99.90;;;;;;5108577;28;20158;-87
2022/01/22 06:00:38;;;;;;;22.95;12.82;;;5.50;99.90;;;;;;5114119;28;20427;-87
2022/01/22 06:03:03;;;;;;;22.25;13.25;;;5.50;99.90;;;;;;5104838;28;20055;-87
2022/01/22 06:05:29;;;;;;;25.10;14.15;;;5.50;99.90;;;;;;5093275;28;20024;-88
2022/01/22 06:08:07;;;;;;;25.70;15.13;;;5.50;99.90;;;;;;5101097;28;20407;-86
2022/01/22 06:10:34;;;;;;;24.65;15.70;;;5.50;99.90;;;;;;5110007;28;20462;-85
2022/01/22 06:13:18;;;;;;;23.13;14.77;;;5.50;99.90;;;;;;5091072;28;20029;-87
2022/01/22 06:15:44;;;;;;;26.52;16.25;;;5.50;99.90;;;;;;5078670;28;20024;-86
2022/01/22 06:18:10;;;;;;;24.52;14.18;;;5.50;99.90;;;;;;5104437;28;20084;-86
2022/01/22 06:20:35;;;;;;;25.85;14.40;;;5.50;99.90;;;;;;5093040;28;20034;-86
2022/01/22 06:23:02;;;;;;;22.60;13.85;;;5.50;99.90;;;;;;5092356;28;20103;-87
2022/01/22 06:25:28;;;;;;;24.52;13.10;;;5.60;99.90;;;;;;5093353;28;20081;-86
2022/01/22 06:27:54;;;;;;;23.75;13.20;;;5.50;99.90;;;;;;5102408;28;20023;-86
2022/01/22 06:30:20;;;;;;;21.95;13.40;;;5.60;99.90;;;;;;5094817;28;20036;-86
2022/01/22 06:32:46;;;;;;;23.92;13.88;;;5.60;99.90;;;;;;5092613;28;20020;-86
2022/01/22 06:35:12;;;;;;;22.63;12.32;;;5.60;99.90;;;;;;5108527;28;20028;-86
2022/01/22 06:37:38;;;;;;;16.60;10.90;;;5.60;99.90;;;;;;5092199;28;20039;-86
2022/01/22 06:42:33;;;;;;;16.10;9.93;;;5.50;99.90;;;;;;5102590;28;20024;-86
2022/01/22 06:45:00;;;;;;;14.18;7.97;;;5.50;99.90;;;;;;5091793;28;20569;-87
2022/01/22 06:47:27;;;;;;;12.65;8.35;;;5.60;99.90;;;;;;5084401;28;20458;-86
2022/01/22 06:49:53;;;;;;;13.77;8.75;;;5.60;99.90;;;;;;5074230;28;20032;-86
2022/01/22 06:52:19;;;;;;;12.75;8.52;;;5.60;99.90;;;;;;5093950;28;20103;-86
2022/01/22 06:54:45;;;;;;;16.00;8.75;;;5.60;99.90;;;;;;5091785;28;20115;-86
2022/01/22 06:57:12;;;;;;;10.55;7.43;;;5.60;99.90;;;;;;5073587;28;20545;-85
2022/01/22 06:59:37;;;;;;;9.85;6.80;;;5.60;99.90;;;;;;5092336;28;20369;-85
2022/01/22 07:02:04;;;;;;;12.25;7.40;;;5.60;99.90;;;;;;5091169;28;20035;-84
2022/01/22 07:04:31;;;;;;;9.77;7.30;;;5.60;99.90;;;;;;5093917;28;20051;-85
2022/01/22 07:06:57;;;;;;;10.45;7.40;;;5.60;99.90;;;;;;5098201;28;20375;-85
2022/01/22 07:09:23;;;;;;;10.55;7.38;;;5.60;99.90;;;;;;5090699;28;20024;-85
2022/01/22 07:11:49;;;;;;;10.10;7.18;;;5.60;99.90;;;;;;5100891;28;20115;-85
2022/01/22 07:14:15;;;;;;;9.50;7.07;;;5.60;99.90;;;;;;5111787;28;20575;-83
2022/01/22 07:16:41;;;;;;;12.32;7.60;;;5.60;99.90;;;;;;5098112;28;20085;-84
2022/01/22 07:19:06;;;;;;;11.63;7.18;;;5.50;99.90;;;;;;5111886;28;20024;-83
2022/01/22 07:21:36;;;;;;;7.80;6.32;;;5.60;99.90;;;;;;5105543;28;20379;-83
2022/01/22 07:26:27;;;;;;;11.65;7.55;;;5.60;99.90;;;;;;5097800;28;20060;-83
2022/01/22 07:28:53;;;;;;;12.48;7.88;;;5.60;99.90;;;;;;5075502;28;20032;-83
2022/01/22 07:31:20;;;;;;;10.90;7.95;;;5.50;99.90;;;;;;5096180;28;20110;-82
2022/01/22 07:33:47;;;;;;;10.23;7.63;;;5.50;99.90;;;;;;5096146;28;20020;-83
2022/01/22 07:36:13;;;;;;;11.77;8.57;;;5.50;99.90;;;;;;5096029;28;20027;-83
2022/01/22 07:38:39;;;;;;;10.07;6.97;;;5.60;99.90;;;;;;5096229;28;20031;-82
2022/01/22 07:41:07;;;;;;;10.70;7.47;;;5.60;99.90;;;;;;5077629;28;20077;-82
2022/01/22 07:43:33;;;;;;;8.20;6.00;;;5.60;99.90;;;;;;5095884;28;20035;-82
2022/01/22 07:45:59;;;;;;;7.35;5.13;;;5.60;99.90;;;;;;5095866;28;20044;-82
2022/01/22 07:48:24;;;;;;;7.88;5.90;;;5.60;99.90;;;;;;5095925;28;20036;-82
2022/01/22 07:50:50;;;;;;;7.32;5.68;;;5.60;99.90;;;;;;5095977;28;20393;-82
2022/01/22 07:53:15;;;;;;;10.20;6.32;;;5.60;99.90;;;;;;5095680;28;20074;-82
2022/01/22 07:55:41;;;;;;;9.75;7.65;;;5.60;99.90;;;;;;5095619;28;20552;-83
2022/01/22 07:58:06;;;;;;;9.88;7.43;;;5.50;99.90;;;;;;5095785;28;20107;-83
2022/01/22 08:00:34;;;;;;;12.15;8.18;;;5.50;99.90;;;;;;5095636;28;20523;-83
2022/01/22 08:02:59;;;;;;;12.77;8.23;;;5.50;99.90;;;;;;5095716;28;20119;-83
2022/01/22 08:05:25;;;;;;;11.98;9.55;;;5.50;99.90;;;;;;5095700;28;20515;-82
2022/01/22 08:07:50;;;;;;;10.60;8.85;;;5.60;99.90;;;;;;5095619;28;20023;-83
2022/01/22 08:10:17;;;;;;;10.57;8.05;;;5.50;99.90;;;;;;5095240;28;20103;-82
2022/01/22 08:12:43;;;;;;;8.38;6.55;;;5.60;99.90;;;;;;5095463;28;20020;-82
2022/01/22 08:15:11;;;;;;;8.23;6.00;;;5.60;99.90;;;;;;5095323;28;20077;-82
2022/01/22 08:17:38;;;;;;;5.22;4.70;;;5.60;99.90;;;;;;5095519;28;20081;-82
2022/01/22 08:20:04;;;;;;;5.10;4.30;;;5.60;99.90;;;;;;5077091;28;20027;-82
2022/01/22 08:22:30;;;;;;;5.05;4.05;;;5.50;99.90;;;;;;5095250;28;20043;-83
2022/01/22 08:24:58;;;;;;;3.90;3.22;;;5.50;99.90;;;;;;5095028;28;20492;-83
2022/01/22 08:29:57;;;;;;;3.58;3.15;;;5.50;99.90;;;;;;5095235;28;20067;-82
2022/01/22 08:37:39;;;;;;;8.10;4.07;;;5.50;99.90;;;;;;5095191;28;20073;-83
2022/01/22 08:40:08;;;;;;;5.13;4.45;;;5.60;99.90;;;;;;5093975;28;20059;-82
2022/01/22 08:42:34;;;;;;;5.05;4.15;;;5.50;99.90;;;;;;5094763;28;20328;-83
2022/01/22 08:44:59;;;;;;;4.97;4.22;;;5.50;99.90;;;;;;5076656;28;20436;-82
2022/01/22 08:47:25;;;;;;;4.60;3.80;;;5.50;99.90;;;;;;5076722;28;20035;-82
2022/01/22 08:49:51;;;;;;;10.60;4.55;;;5.50;99.90;;;;;;5094690;28;20032;-83
2022/01/22 08:52:18;;;;;;;6.00;4.60;;;5.60;99.90;;;;;;5094659;28;20035;-82
2022/01/22 08:54:45;;;;;;;7.38;5.30;;;5.50;99.90;;;;;;5094428;28;20035;-83
2022/01/22 08:57:11;;;;;;;8.00;5.38;;;5.60;99.90;;;;;;5076558;28;20028;-82
2022/01/22 08:59:37;;;;;;;10.55;5.63;;;5.50;99.90;;;;;;5076613;28;20028;-83
2022/01/22 09:02:05;;;;;;;7.72;4.97;;;5.60;99.90;;;;;;5094561;28;20053;-83
2022/01/22 09:04:31;;;;;;;8.48;5.85;;;5.50;99.90;;;;;;5076280;28;20039;-83
2022/01/22 09:06:57;;;;;;;9.43;6.80;;;5.50;99.90;;;;;;5094592;28;20112;-83
2022/01/22 09:09:25;;;;;;;13.95;5.72;;;5.50;99.90;;;;;;5094060;28;20067;-83
2022/01/22 09:11:50;;;;;;;11.52;6.63;;;5.50;99.90;;;;;;5094261;28;20039;-83
2022/01/22 09:14:17;;;;;;;13.07;6.47;;;5.60;99.90;;;;;;5094228;28;20036;-82
2022/01/22 09:16:44;;;;;;;9.00;6.05;;;5.50;99.90;;;;;;5076220;28;20313;-82
2022/01/22 09:19:11;;;;;;;9.45;5.35;;;5.60;99.90;;;;;;5094032;28;20031;-83
2022/01/22 09:21:41;;;;;;;6.57;5.00;;;5.60;99.90;;;;;;5094183;28;20020;-83
2022/01/22 09:24:08;;;;;;;10.10;5.60;;;5.60;99.90;;;;;;5093742;28;20468;-83
2022/01/22 09:26:34;;;;;;;6.30;4.35;;;5.60;99.90;;;;;;5094056;28;20031;-83
2022/01/22 09:29:00;;;;;;;8.60;4.20;;;5.60;99.90;;;;;;5094031;28;20040;-83
2022/01/22 09:31:30;;;;;;;6.72;4.13;;;5.60;99.90;;;;;;5093911;28;20027;-83
2022/01/22 09:33:58;;;;;;;6.38;4.53;;;5.60;99.90;;;;;;5093908;28;20036;-82
2022/01/22 09:36:24;;;;;;;6.53;4.55;;;5.60;99.90;;;;;;5075687;28;20032;-83
2022/01/22 09:38:50;;;;;;;4.97;3.65;;;5.60;99.90;;;;;;5075252;28;20118;-83
2022/01/22 09:41:17;;;;;;;6.35;3.72;;;5.60;99.90;;;;;;5093763;28;20024;-83
2022/01/22 09:43:43;;;;;;;6.03;4.22;;;5.50;99.90;;;;;;5093781;28;20031;-83
2022/01/22 09:46:09;;;;;;;4.90;4.32;;;5.60;99.90;;;;;;5075314;28;20048;-83
2022/01/22 09:48:40;;;;;;;12.43;6.00;;;5.60;99.90;;;;;;5075334;28;20032;-83
2022/01/22 09:51:05;;;;;;;8.40;5.60;;;5.70;99.90;;;;;;5093414;28;20038;-83
2022/01/22 09:53:31;;;;;;;9.90;6.82;;;5.60;99.90;;;;;;5074155;28;20028;-83
2022/01/22 09:55:57;;;;;;;11.60;8.43;;;5.70;99.90;;;;;;5092998;28;20103;-83
2022/01/22 09:58:23;;;;;;;21.20;12.45;;;5.70;99.90;;;;;;5093116;28;20383;-82
2022/01/22 10:00:49;;;;;;;21.83;13.25;;;5.70;99.90;;;;;;5075425;28;20463;-83
2022/01/22 10:03:17;;;;;;;25.25;15.68;;;5.70;99.90;;;;;;5092840;28;20129;-82
2022/01/22 10:05:43;;;;;;;31.13;17.85;;;5.70;99.90;;;;;;5075212;28;20028;-83
2022/01/22 10:08:35;;;;;;;32.67;18.00;;;5.80;99.90;;;;;;5093279;28;20086;-83
2022/01/22 10:11:02;;;;;;;29.67;18.02;;;5.70;99.90;;;;;;5092955;28;20034;-83
2022/01/22 10:13:46;;;;;;;31.52;18.25;;;5.70;99.90;;;;;;5093005;28;20441;-83
2022/01/22 10:16:19;;;;;;;32.85;17.95;;;5.70;99.90;;;;;;5093030;28;20486;-88
2022/01/22 10:18:46;;;;;;;31.50;17.00;;;5.70;99.90;;;;;;5093221;28;20098;-87
2022/01/22 10:21:15;;;;;;;31.52;18.13;;;5.70;99.90;;;;;;5092980;28;20024;-87
2022/01/22 10:23:42;;;;;;;24.92;14.90;;;5.70;99.90;;;;;;5092926;28;20491;-88
2022/01/22 10:26:12;;;;;;;27.85;17.52;;;5.70;99.90;;;;;;5093060;28;20050;-87
2022/01/22 10:28:49;;;;;;;26.25;15.73;;;5.70;99.90;;;;;;5074953;28;20066;-87
2022/01/22 10:31:22;;;;;;;29.50;16.60;;;5.70;99.90;;;;;;5075225;28;20046;-88
2022/01/22 10:34:07;;;;;;;22.55;15.20;;;5.70;99.90;;;;;;5092809;28;20103;-88
2022/01/22 10:36:33;;;;;;;27.25;16.77;;;5.70;99.90;;;;;;5074723;28;20028;-88
2022/01/22 10:38:59;;;;;;;30.05;16.50;;;5.70;99.90;;;;;;5092724;28;20028;-87
2022/01/22 10:41:54;;;;;;;25.60;15.80;;;5.70;99.90;;;;;;5092666;28;20024;-88
2022/01/22 10:44:36;;;;;;;27.35;16.15;;;5.70;99.90;;;;;;5079336;28;20416;-87
2022/01/22 10:47:03;;;;;;;21.75;14.35;;;5.70;99.90;;;;;;5092799;28;20024;-88
2022/01/22 10:49:30;;;;;;;26.92;16.38;;;5.70;99.90;;;;;;5092737;28;20063;-87
2022/01/22 10:52:00;;;;;;;28.42;16.98;;;5.70;99.90;;;;;;5074466;28;20402;-88
2022/01/22 10:54:28;;;;;;;25.73;16.35;;;5.70;99.90;;;;;;5074326;28;20071;-87
2022/01/22 10:57:08;;;;;;;25.17;16.05;;;5.70;99.90;;;;;;5092518;28;20050;-88
2022/01/22 10:59:34;;;;;;;23.63;16.15;;;5.70;99.90;;;;;;5092539;28;20028;-88
2022/01/22 11:02:00;;;;;;;25.10;15.40;;;5.80;99.90;;;;;;5092695;28;20036;-88
2022/01/22 11:04:34;;;;;;;25.83;16.02;;;5.80;99.90;;;;;;5092402;28;20067;-87
2022/01/22 11:07:03;;;;;;;22.45;13.40;;;5.70;99.90;;;;;;5074536;28;20036;-88
2022/01/22 11:09:30;;;;;;;26.80;14.32;;;5.70;99.90;;;;;;5092324;28;20039;-88
2022/01/22 11:12:00;;;;;;;21.55;12.93;;;5.70;99.90;;;;;;5092485;28;20085;-88
2022/01/22 11:14:28;;;;;;;26.05;13.23;;;5.70;99.90;;;;;;5092352;28;20387;-88
2022/01/22 11:16:54;;;;;;;23.10;13.70;;;5.70;99.90;;;;;;5092421;28;20460;-88
2022/01/22 11:19:30;;;;;;;27.02;13.30;;;5.70;99.90;;;;;;5092390;28;20035;-88
2022/01/22 11:21:57;;;;;;;22.33;13.13;;;5.70;99.90;;;;;;5091627;28;20028;-88
2022/01/22 11:24:25;;;;;;;24.90;14.13;;;5.80;99.90;;;;;;5091998;28;20388;-88
2022/01/22 11:26:58;;;;;;;26.05;13.93;;;5.70;99.90;;;;;;5092235;28;20039;-87
2022/01/22 11:29:28;;;;;;;29.65;14.40;;;5.80;99.90;;;;;;5073856;28;20032;-88
2022/01/22 11:31:56;;;;;;;25.55;13.13;;;5.80;99.90;;;;;;5092219;28;20032;-87
2022/01/22 11:34:25;;;;;;;24.48;13.40;;;5.80;99.90;;;;;;5092098;28;20020;-88
2022/01/22 11:37:15;;;;;;;19.42;12.00;;;5.80;99.90;;;;;;5092218;28;20028;-88
2022/01/22 11:39:41;;;;;;;20.90;11.65;;;5.80;99.90;;;;;;5074117;28;20483;-88
2022/01/22 11:42:08;;;;;;;15.75;10.32;;;5.80;99.90;;;;;;5092235;28;20020;-87
2022/01/22 11:44:51;;;;;;;18.15;10.05;;;5.80;99.90;;;;;;5091761;28;20052;-88
2022/01/22 11:47:22;;;;;;;13.00;8.43;;;5.80;99.90;;;;;;5092260;28;20028;-87
2022/01/22 11:50:09;;;;;;;10.60;7.72;;;5.80;99.90;;;;;;5092129;28;20364;-87
2022/01/22 11:52:40;;;;;;;13.40;6.55;;;5.80;99.90;;;;;;5092070;28;20376;-88
2022/01/22 11:55:14;;;;;;;11.15;7.30;;;5.90;99.90;;;;;;5073746;28;20039;-88
2022/01/22 11:57:44;;;;;;;9.68;6.75;;;5.90;99.90;;;;;;5092069;28;20021;-87
2022/01/22 12:00:23;;;;;;;8.85;6.28;;;5.80;99.90;;;;;;5074093;28;20032;-87
2022/01/22 12:03:07;;;;;;;9.55;6.88;;;5.80;99.90;;;;;;5091980;28;20538;-88
2022/01/22 12:05:34;;;;;;;7.82;5.95;;;5.90;99.90;;;;;;5091853;28;20095;-88
2022/01/22 12:08:01;;;;;;;9.75;6.55;;;5.90;99.90;;;;;;5073934;28;20028;-88
2022/01/22 12:10:41;;;;;;;10.45;6.55;;;5.80;99.90;;;;;;5091651;28;20021;-88
2022/01/22 12:16:15;;;;;;;8.00;6.57;;;5.80;99.90;;;;;;5094180;28;20077;-88
2022/01/22 12:19:10;;;;;;;10.80;7.38;;;5.90;99.90;;;;;;5077413;28;20434;-88
2022/01/22 12:21:41;;;;;;;13.10;8.02;;;5.80;99.90;;;;;;5094648;28;20028;-88
2022/01/22 12:24:10;;;;;;;13.38;8.65;;;5.80;99.90;;;;;;5077033;28;20027;-87
2022/01/22 12:26:37;;;;;;;12.50;8.55;;;5.80;99.90;;;;;;5095320;28;20099;-87
2022/01/22 12:29:30;;;;;;;14.82;10.20;;;5.90;99.90;;;;;;5095379;28;20105;-88
2022/01/22 12:32:11;;;;;;;16.35;8.75;;;5.90;99.90;;;;;;5077108;28;20031;-88
2022/01/22 12:34:59;;;;;;;12.52;6.63;;;5.80;99.90;;;;;;5095091;28;20028;-88
2022/01/22 12:37:26;;;;;;;8.68;6.43;;;5.90;99.90;;;;;;5077035;28;20024;-87
2022/01/22 12:39:54;;;;;;;8.13;6.13;;;5.90;99.90;;;;;;5076459;28;20024;-88
2022/01/22 12:42:30;;;;;;;7.25;5.63;;;5.90;99.90;;;;;;5076891;28;20039;-88
2022/01/22 12:45:02;;;;;;;5.68;4.55;;;5.90;99.90;;;;;;5094929;28;20048;-88
2022/01/22 12:47:28;;;;;;;10.30;4.90;;;5.90;99.90;;;;;;5094948;28;20153;-89
2022/01/22 12:50:03;;;;;;;9.00;5.60;;;5.80;99.90;;;;;;5094784;28;20106;-87
2022/01/22 12:52:33;;;;;;;8.20;5.95;;;5.80;99.90;;;;;;5076616;28;20503;-88
2022/01/22 12:55:00;;;;;;;8.48;5.60;;;5.80;99.90;;;;;;5076349;28;20033;-87
2022/01/22 12:57:27;;;;;;;10.65;6.60;;;5.70;99.90;;;;;;5094771;28;20048;-87
2022/01/22 13:00:00;;;;;;;9.23;6.45;;;5.80;99.90;;;;;;5076586;28;20089;-88
2022/01/22 13:02:45;;;;;;;7.35;5.88;;;5.80;99.90;;;;;;5094795;28;20046;-88
2022/01/22 13:05:13;;;;;;;17.15;6.75;;;5.70;99.90;;;;;;5076872;28;20055;-88
2022/01/22 13:07:40;;;;;;;13.48;7.10;;;5.70;99.90;;;;;;5094547;28;20032;-87
2022/01/22 13:10:08;;;;;;;12.38;8.32;;;5.70;99.90;;;;;;5094868;28;20024;-87
2022/01/22 13:12:36;;;;;;;14.45;9.57;;;5.70;99.90;;;;;;5094321;28;20471;-87
2022/01/22 13:15:03;;;;;;;15.25;9.63;;;5.70;99.90;;;;;;5094368;28;20024;-87
2022/01/22 13:17:32;;;;;;;26.85;10.50;;;5.70;99.90;;;;;;5094319;28;20464;-87
2022/01/22 13:19:59;;;;;;;19.20;12.65;;;5.70;99.90;;;;;;5094422;28;20020;-87
2022/01/22 13:22:58;;;;;;;17.33;10.98;;;5.60;99.90;;;;;;5094252;28;20046;-88
2022/01/22 13:25:23;;;;;;;20.90;11.43;;;5.60;99.90;;;;;;5093827;28;20044;-87
2022/01/22 13:28:01;;;;;;;20.15;12.45;;;5.70;99.90;;;;;;5093986;28;20020;-88
2022/01/22 13:30:32;;;;;;;18.58;11.43;;;5.60;99.90;;;;;;5075950;28;20020;-87
2022/01/22 13:33:03;;;;;;;21.63;12.30;;;5.60;99.90;;;;;;5094202;28;20533;-88
2022/01/22 13:35:50;;;;;;;22.73;12.27;;;5.60;99.90;;;;;;5093977;28;20031;-87
2022/01/22 13:45:01;;;;;;;16.15;11.77;;;5.60;99.90;;;;;;5093864;28;20046;-88
2022/01/22 13:49:21;;;;;;;17.95;11.45;;;5.70;99.90;;;;;;5094046;28;20043;-88
2022/01/22 13:51:48;;;;;;;18.65;11.05;;;5.70;99.90;;;;;;5075476;28;20454;-87
2022/01/22 13:54:14;;;;;;;17.42;12.25;;;5.80;99.90;;;;;;5093195;28;20099;-87
2022/01/22 13:56:48;;;;;;;20.88;13.57;;;5.70;99.90;;;;;;5093645;28;20028;-87
2022/01/22 13:59:17;;;;;;;18.73;11.85;;;5.70;99.90;;;;;;5093564;28;20472;-88
2022/01/22 14:01:52;;;;;;;22.05;13.95;;;5.70;99.90;;;;;;5093466;28;20043;-88
2022/01/22 14:04:19;;;;;;;26.52;13.52;;;5.70;99.90;;;;;;5075477;28;20024;-87
2022/01/22 14:06:46;;;;;;;19.38;12.05;;;5.70;99.90;;;;;;5093492;28;20031;-88
2022/01/22 14:09:20;;;;;;;22.23;14.15;;;5.70;99.90;;;;;;5093039;28;20028;-88
2022/01/22 14:12:10;;;;;;;18.33;12.35;;;5.70;99.90;;;;;;5092918;28;20050;-88
2022/01/22 14:14:57;;;;;;;19.85;10.98;;;5.70;99.90;;;;;;5075037;28;20020;-87
2022/01/22 14:17:25;;;;;;;;;;;5.70;99.90;;;;;;5093409;28;20096;-87
2022/01/22 14:20:24;;;;;;;17.60;10.40;;;5.70;99.90;;;;;;5093202;28;19908;-88
2022/01/22 14:22:58;;;;;;;21.67;13.02;;;5.60;99.90;;;;;;5081826;28;20032;-89
2022/01/22 14:25:24;;;;;;;16.92;9.75;;;5.60;99.90;;;;;;5092938;28;20024;-88
2022/01/22 14:28:07;;;;;;;13.23;9.35;;;5.60;99.90;;;;;;5093181;28;20525;-88
2022/01/22 14:30:40;;;;;;;13.68;8.68;;;5.60;99.90;;;;;;5074800;28;20158;-88
2022/01/22 14:33:06;;;;;;;10.38;7.75;;;5.60;99.90;;;;;;5092990;28;20024;-88
2022/01/22 14:35:33;;;;;;;10.32;6.93;;;5.70;99.90;;;;;;5074873;28;20028;-88
2022/01/22 14:38:18;;;;;;;10.65;6.78;;;5.70;99.90;;;;;;5092111;28;20032;-87
2022/01/22 14:44:01;;;;;;;8.35;5.40;;;5.80;99.90;;;;;;5092850;28;20032;-89
2022/01/22 14:46:41;;;;;;;10.50;6.60;;;5.70;99.90;;;;;;5092601;28;20036;-88
2022/01/22 14:49:07;;;;;;;11.68;6.32;;;5.70;99.90;;;;;;5092969;28;20024;-89
2022/01/22 14:51:32;;;;;;;7.30;5.72;;;5.70;99.90;;;;;;5092820;28;20035;-89
2022/01/22 14:53:58;;;;;;;9.52;6.38;;;5.70;99.90;;;;;;5092520;28;20468;-88
2022/01/22 14:56:23;;;;;;;6.88;5.30;;;5.70;99.90;;;;;;5092835;28;20024;-88